Accueil
METAR-TAF:

METAR-TAF

Aéroports :

Aéroport de Metz-Nancy-Lorraine

Metz-Nancy-Lorraine, France

latitude: 48-59N, longitude: 006-15E, altitude: 264 m

Observation

Le bulletin a été fait il y a 28 minutes, à 06:30 UTC
Vent 7 kt de nord-est, variant entre nord/nord-est et est
Température 15°C
Humidité 63%
Pression 1033 hPa
Visibilité 10 km ou plus
pas de nuages en-dessous de 1500 mètres et pas de cumulonimbus.

METAR: LFJL 270630Z AUTO 05007KT 030V090 CAVOK 15/08 Q1033 NOSIG

Heure: 08:58 (06:58 UTC)

Prévision

Le bulletin a été fait il y a 1 heure et 58 minutes, à 05:00 UTC
Prévision valable du 27 à 06 UTC au 28 à 06 UTC
Vent 8 kt de est/nord-est
Visibilité 10 km ou plus
pas de nuages en-dessous de 1500 mètres et pas de cumulonimbus.
Temporairement
du 27 à 19 UTC au 27 à 23 UTC
Vent 3 kt de direction variable

TAF: LFJL 270500Z 2706/2806 06008KT CAVOK TEMPO 2719/2723 VRB03KT

Observations et prévisions météorologiques de plus de 4000 aéroports (messages METAR et TAF).

Les stations disponibles sont représentées par des disques jaunes et rouges sur la carte.

Passer la souris dessus pour voir le nom de la station.

Cliquer dessus pour voir les observations et prévisions météorologiques.

Pour changer de carte: cliquez sur les boutons verts avec une croix noire pour zoomer, sur le bouton vert avec un tiret pour effectuer un zoom arrière, ou sur les flèches vertes pour les cartes adjacentes.


METAR-TAF: